sensor_id;sensor_type;location;lat;lon;timestamp;pressure;altitude;pressure_sealevel;temperature;humidity
77450;BME280;66536;53.150;18.172;2023-09-12T00:00:03;101011.16;;;15.97;83.18
77450;BME280;66536;53.150;18.172;2023-09-12T00:03:04;101011.68;;;15.96;83.17
77450;BME280;66536;53.150;18.172;2023-09-12T00:05:50;101010.41;;;15.95;83.26
77450;BME280;66536;53.150;18.172;2023-09-12T00:08:30;101010.92;;;15.94;83.15
77450;BME280;66536;53.150;18.172;2023-09-12T00:11:10;101008.17;;;15.93;83.17
77450;BME280;66536;53.150;18.172;2023-09-12T00:13:44;101005.00;;;15.91;83.16
77450;BME280;66536;53.150;18.172;2023-09-12T00:16:17;101007.88;;;15.88;83.48
77450;BME280;66536;53.150;18.172;2023-09-12T00:18:56;101005.55;;;15.86;83.52
77450;BME280;66536;53.150;18.172;2023-09-12T00:21:29;101006.81;;;15.85;83.77
77450;BME280;66536;53.150;18.172;2023-09-12T00:24:01;101001.99;;;15.84;83.91
77450;BME280;66536;53.150;18.172;2023-09-12T00:26:39;101005.46;;;15.82;83.83
77450;BME280;66536;53.150;18.172;2023-09-12T00:29:12;101006.23;;;15.82;83.66
77450;BME280;66536;53.150;18.172;2023-09-12T00:31:48;101011.94;;;15.80;83.92
77450;BME280;66536;53.150;18.172;2023-09-12T00:34:27;101010.14;;;15.78;83.72
77450;BME280;66536;53.150;18.172;2023-09-12T00:37:00;101007.14;;;15.75;83.61
77450;BME280;66536;53.150;18.172;2023-09-12T00:39:32;101005.73;;;15.72;83.70
77450;BME280;66536;53.150;18.172;2023-09-12T00:42:10;101008.75;;;15.69;83.74
77450;BME280;66536;53.150;18.172;2023-09-12T00:44:43;101006.20;;;15.66;83.94
77450;BME280;66536;53.150;18.172;2023-09-12T00:47:15;101002.77;;;15.65;84.15
77450;BME280;66536;53.150;18.172;2023-09-12T00:49:55;101004.12;;;15.64;84.17
77450;BME280;66536;53.150;18.172;2023-09-12T00:52:29;101002.33;;;15.63;84.21
77450;BME280;66536;53.150;18.172;2023-09-12T00:55:10;100997.95;;;15.62;84.10
77450;BME280;66536;53.150;18.172;2023-09-12T00:57:49;100998.40;;;15.61;84.07
77450;BME280;66536;53.150;18.172;2023-09-12T01:00:31;100998.55;;;15.57;84.07
77450;BME280;66536;53.150;18.172;2023-09-12T01:03:16;100997.60;;;15.55;84.14
77450;BME280;66536;53.150;18.172;2023-09-12T01:05:49;100993.73;;;15.54;84.30
77450;BME280;66536;53.150;18.172;2023-09-12T01:08:35;100996.41;;;15.52;84.29
77450;BME280;66536;53.150;18.172;2023-09-12T01:11:10;100992.89;;;15.51;84.34
77450;BME280;66536;53.150;18.172;2023-09-12T01:13:56;100993.81;;;15.50;84.55
77450;BME280;66536;53.150;18.172;2023-09-12T01:16:29;100992.88;;;15.48;84.82
77450;BME280;66536;53.150;18.172;2023-09-12T01:19:15;100991.59;;;15.46;84.63
77450;BME280;66536;53.150;18.172;2023-09-12T01:22:10;100989.46;;;15.44;84.68
77450;BME280;66536;53.150;18.172;2023-09-12T01:25:14;100990.78;;;15.42;84.60
77450;BME280;66536;53.150;18.172;2023-09-12T01:27:51;100992.11;;;15.40;84.54
77450;BME280;66536;53.150;18.172;2023-09-12T01:30:39;100988.44;;;15.39;84.63
77450;BME280;66536;53.150;18.172;2023-09-12T01:33:21;100987.72;;;15.37;84.58
77450;BME280;66536;53.150;18.172;2023-09-12T01:35:59;100987.90;;;15.36;84.79
77450;BME280;66536;53.150;18.172;2023-09-12T01:38:32;100990.17;;;15.35;84.71
77450;BME280;66536;53.150;18.172;2023-09-12T01:41:04;100994.37;;;15.33;84.78
77450;BME280;66536;53.150;18.172;2023-09-12T01:43:44;100993.44;;;15.31;84.77
77450;BME280;66536;53.150;18.172;2023-09-12T01:46:25;100999.50;;;15.29;84.78
77450;BME280;66536;53.150;18.172;2023-09-12T01:49:05;100999.25;;;15.28;84.73
77450;BME280;66536;53.150;18.172;2023-09-12T01:51:47;101001.30;;;15.26;84.79
77450;BME280;66536;53.150;18.172;2023-09-12T01:54:27;101000.92;;;15.23;84.74
77450;BME280;66536;53.150;18.172;2023-09-12T01:57:07;100998.29;;;15.21;84.92
77450;BME280;66536;53.150;18.172;2023-09-12T01:59:47;101002.52;;;15.20;84.87
77450;BME280;66536;53.150;18.172;2023-09-12T02:02:28;101000.66;;;15.18;85.03
77450;BME280;66536;53.150;18.172;2023-09-12T02:05:16;101000.30;;;15.16;85.01
77450;BME280;66536;53.150;18.172;2023-09-12T02:07:58;101000.19;;;15.13;84.97
77450;BME280;66536;53.150;18.172;2023-09-12T02:10:37;101001.45;;;15.10;85.02
77450;BME280;66536;53.150;18.172;2023-09-12T02:13:17;101002.55;;;15.09;85.14
77450;BME280;66536;53.150;18.172;2023-09-12T02:16:00;101004.19;;;15.07;85.19
77450;BME280;66536;53.150;18.172;2023-09-12T02:18:42;101005.44;;;15.04;85.29
77450;BME280;66536;53.150;18.172;2023-09-12T02:21:21;101006.15;;;15.02;85.31
77450;BME280;66536;53.150;18.172;2023-09-12T02:24:01;101006.89;;;15.00;85.27
77450;BME280;66536;53.150;18.172;2023-09-12T02:26:39;101007.00;;;14.98;85.29
77450;BME280;66536;53.150;18.172;2023-09-12T02:29:12;101009.99;;;14.96;85.46
77450;BME280;66536;53.150;18.172;2023-09-12T02:31:44;101010.15;;;14.94;85.48
77450;BME280;66536;53.150;18.172;2023-09-12T02:34:22;101010.54;;;14.93;85.48
77450;BME280;66536;53.150;18.172;2023-09-12T02:36:56;101013.50;;;14.90;85.43
77450;BME280;66536;53.150;18.172;2023-09-12T02:39:29;101011.64;;;14.89;85.44
77450;BME280;66536;53.150;18.172;2023-09-12T02:42:07;101013.69;;;14.87;85.38
77450;BME280;66536;53.150;18.172;2023-09-12T02:44:40;101012.08;;;14.85;85.46
77450;BME280;66536;53.150;18.172;2023-09-12T02:47:19;101012.77;;;14.83;85.57
77450;BME280;66536;53.150;18.172;2023-09-12T02:49:57;101011.96;;;14.82;85.53
77450;BME280;66536;53.150;18.172;2023-09-12T02:52:37;101011.70;;;14.80;85.54
77450;BME280;66536;53.150;18.172;2023-09-12T02:55:15;101012.48;;;14.78;85.58
77450;BME280;66536;53.150;18.172;2023-09-12T02:57:55;101014.33;;;14.77;85.69
77450;BME280;66536;53.150;18.172;2023-09-12T03:00:39;101014.12;;;14.74;85.84
77450;BME280;66536;53.150;18.172;2023-09-12T03:03:20;101014.48;;;14.72;85.97
77450;BME280;66536;53.150;18.172;2023-09-12T03:06:00;101015.58;;;14.71;85.92
77450;BME280;66536;53.150;18.172;2023-09-12T03:08:40;101016.23;;;14.68;85.86
77450;BME280;66536;53.150;18.172;2023-09-12T03:11:27;101017.52;;;14.66;85.91
77450;BME280;66536;53.150;18.172;2023-09-12T03:14:07;101012.66;;;14.63;86.00
77450;BME280;66536;53.150;18.172;2023-09-12T03:16:45;101012.41;;;14.61;86.04
77450;BME280;66536;53.150;18.172;2023-09-12T03:19:25;101012.83;;;14.60;85.96
77450;BME280;66536;53.150;18.172;2023-09-12T03:22:03;101016.86;;;14.58;85.98
77450;BME280;66536;53.150;18.172;2023-09-12T03:24:46;101015.37;;;14.57;85.93
77450;BME280;66536;53.150;18.172;2023-09-12T03:27:24;101015.36;;;14.55;85.69
77450;BME280;66536;53.150;18.172;2023-09-12T03:30:05;101011.18;;;14.52;85.58
77450;BME280;66536;53.150;18.172;2023-09-12T03:32:51;101011.79;;;14.49;85.71
77450;BME280;66536;53.150;18.172;2023-09-12T03:35:24;101013.89;;;14.48;85.74
77450;BME280;66536;53.150;18.172;2023-09-12T03:38:10;101017.41;;;14.45;85.68
77450;BME280;66536;53.150;18.172;2023-09-12T03:40:43;101019.54;;;14.43;85.69
77450;BME280;66536;53.150;18.172;2023-09-12T03:43:22;101019.64;;;14.41;85.73
77450;BME280;66536;53.150;18.172;2023-09-12T03:46:02;101019.16;;;14.39;85.71
77450;BME280;66536;53.150;18.172;2023-09-12T03:48:42;101017.95;;;14.38;85.61
77450;BME280;66536;53.150;18.172;2023-09-12T03:51:20;101014.60;;;14.35;85.60
77450;BME280;66536;53.150;18.172;2023-09-12T03:54:00;101009.81;;;14.31;85.48
77450;BME280;66536;53.150;18.172;2023-09-12T03:56:38;101011.02;;;14.28;85.51
77450;BME280;66536;53.150;18.172;2023-09-12T03:59:25;101009.38;;;14.26;85.75
77450;BME280;66536;53.150;18.172;2023-09-12T04:02:05;101010.65;;;14.24;85.80
77450;BME280;66536;53.150;18.172;2023-09-12T04:04:50;101007.63;;;14.22;85.94
77450;BME280;66536;53.150;18.172;2023-09-12T04:07:24;101007.73;;;14.20;86.11
77450;BME280;66536;53.150;18.172;2023-09-12T04:10:12;101012.07;;;14.19;86.09
77450;BME280;66536;53.150;18.172;2023-09-12T04:12:52;101011.77;;;14.18;86.25
77450;BME280;66536;53.150;18.172;2023-09-12T04:15:30;101015.08;;;14.16;86.23
77450;BME280;66536;53.150;18.172;2023-09-12T04:18:10;101014.28;;;14.16;86.30
77450;BME280;66536;53.150;18.172;2023-09-12T04:20:51;101014.88;;;14.17;86.28
77450;BME280;66536;53.150;18.172;2023-09-12T04:23:33;101014.95;;;14.19;86.13
77450;BME280;66536;53.150;18.172;2023-09-12T04:26:11;101012.65;;;14.21;86.20
77450;BME280;66536;53.150;18.172;2023-09-12T04:28:51;101012.61;;;14.24;86.16
77450;BME280;66536;53.150;18.172;2023-09-12T04:31:30;101011.46;;;14.26;86.23
77450;BME280;66536;53.150;18.172;2023-09-12T04:34:03;101013.22;;;14.28;86.09
77450;BME280;66536;53.150;18.172;2023-09-12T04:36:38;101012.14;;;14.31;86.02
77450;BME280;66536;53.150;18.172;2023-09-12T04:39:17;101009.89;;;14.34;86.09
77450;BME280;66536;53.150;18.172;2023-09-12T04:41:57;101009.47;;;14.38;85.99
77450;BME280;66536;53.150;18.172;2023-09-12T04:44:40;101007.61;;;14.43;85.86
77450;BME280;66536;53.150;18.172;2023-09-12T04:47:20;101005.39;;;14.46;85.92
77450;BME280;66536;53.150;18.172;2023-09-12T04:49:59;101010.07;;;14.49;85.89
77450;BME280;66536;53.150;18.172;2023-09-12T04:52:40;101012.66;;;14.55;85.92
77450;BME280;66536;53.150;18.172;2023-09-12T04:55:18;101011.80;;;14.61;85.90
77450;BME280;66536;53.150;18.172;2023-09-12T04:57:58;101015.77;;;14.67;85.87
77450;BME280;66536;53.150;18.172;2023-09-12T05:00:39;101011.02;;;14.73;85.81
77450;BME280;66536;53.150;18.172;2023-09-12T05:03:18;101011.66;;;14.81;85.80
77450;BME280;66536;53.150;18.172;2023-09-12T05:05:56;101016.46;;;14.88;85.71
77450;BME280;66536;53.150;18.172;2023-09-12T05:08:37;101018.66;;;14.95;85.66
77450;BME280;66536;53.150;18.172;2023-09-12T05:11:23;101017.31;;;15.02;85.44
77450;BME280;66536;53.150;18.172;2023-09-12T05:13:57;101018.27;;;15.09;85.44
77450;BME280;66536;53.150;18.172;2023-09-12T05:16:42;101020.08;;;15.19;85.45
77450;BME280;66536;53.150;18.172;2023-09-12T05:19:15;101021.08;;;15.27;85.42
77450;BME280;66536;53.150;18.172;2023-09-12T05:22:00;101028.91;;;15.36;85.43
77450;BME280;66536;53.150;18.172;2023-09-12T05:24:33;101033.95;;;15.44;85.21
77450;BME280;66536;53.150;18.172;2023-09-12T05:27:12;101036.68;;;15.55;85.20
77450;BME280;66536;53.150;18.172;2023-09-12T05:29:50;101038.81;;;15.64;85.43
77450;BME280;66536;53.150;18.172;2023-09-12T05:32:31;101036.20;;;15.76;86.03
77450;BME280;66536;53.150;18.172;2023-09-12T05:35:10;101038.50;;;15.87;85.99
77450;BME280;66536;53.150;18.172;2023-09-12T05:37:51;101036.73;;;15.98;85.82
77450;BME280;66536;53.150;18.172;2023-09-12T05:40:30;101036.82;;;16.08;85.52
77450;BME280;66536;53.150;18.172;2023-09-12T05:43:09;101035.70;;;16.19;85.42
77450;BME280;66536;53.150;18.172;2023-09-12T05:45:47;101036.98;;;16.29;85.37
77450;BME280;66536;53.150;18.172;2023-09-12T05:48:28;101034.85;;;16.39;85.16
77450;BME280;66536;53.150;18.172;2023-09-12T05:51:08;101034.55;;;16.50;84.90
77450;BME280;66536;53.150;18.172;2023-09-12T05:53:40;101033.66;;;16.59;84.90
77450;BME280;66536;53.150;18.172;2023-09-12T05:56:26;101034.41;;;16.70;84.80
77450;BME280;66536;53.150;18.172;2023-09-12T05:59:01;101037.05;;;16.80;84.72
77450;BME280;66536;53.150;18.172;2023-09-12T06:01:47;101037.53;;;16.92;84.52
77450;BME280;66536;53.150;18.172;2023-09-12T06:04:21;101040.52;;;17.03;84.50
77450;BME280;66536;53.150;18.172;2023-09-12T06:07:09;101038.48;;;17.14;84.38
77450;BME280;66536;53.150;18.172;2023-09-12T06:09:42;101039.46;;;17.24;84.32
77450;BME280;66536;53.150;18.172;2023-09-12T06:12:27;101037.98;;;17.34;84.18
77450;BME280;66536;53.150;18.172;2023-09-12T06:15:00;101039.45;;;17.46;84.08
77450;BME280;66536;53.150;18.172;2023-09-12T06:17:46;101041.65;;;17.56;84.00
77450;BME280;66536;53.150;18.172;2023-09-12T06:20:18;101039.23;;;17.67;83.79
77450;BME280;66536;53.150;18.172;2023-09-12T06:23:04;101042.08;;;17.78;83.57
77450;BME280;66536;53.150;18.172;2023-09-12T06:25:37;101047.18;;;17.90;83.55
77450;BME280;66536;53.150;18.172;2023-09-12T06:28:25;101045.21;;;18.01;83.37
77450;BME280;66536;53.150;18.172;2023-09-12T06:30:59;101042.71;;;18.12;83.01
77450;BME280;66536;53.150;18.172;2023-09-12T06:33:46;101044.35;;;18.23;82.62
77450;BME280;66536;53.150;18.172;2023-09-12T06:36:18;101045.49;;;18.33;82.67
77450;BME280;66536;53.150;18.172;2023-09-12T06:39:05;101049.88;;;18.45;82.41
77450;BME280;66536;53.150;18.172;2023-09-12T06:41:40;101049.68;;;18.58;81.85
77450;BME280;66536;53.150;18.172;2023-09-12T06:44:26;101051.52;;;18.70;81.77
77450;BME280;66536;53.150;18.172;2023-09-12T06:46:58;101056.27;;;18.81;81.33
77450;BME280;66536;53.150;18.172;2023-09-12T06:49:43;101054.66;;;18.91;81.18
77450;BME280;66536;53.150;18.172;2023-09-12T06:52:16;101053.12;;;19.02;81.03
77450;BME280;66536;53.150;18.172;2023-09-12T06:55:08;101052.52;;;19.13;80.69
77450;BME280;66536;53.150;18.172;2023-09-12T06:58:03;101053.41;;;19.25;80.06
77450;BME280;66536;53.150;18.172;2023-09-12T07:01:03;101055.34;;;19.36;80.00
77450;BME280;66536;53.150;18.172;2023-09-12T07:03:56;101053.53;;;19.49;79.29
77450;BME280;66536;53.150;18.172;2023-09-12T07:06:29;101048.54;;;19.60;79.20
77450;BME280;66536;53.150;18.172;2023-09-12T07:09:15;101052.53;;;19.73;78.81
77450;BME280;66536;53.150;18.172;2023-09-12T07:11:48;101056.25;;;19.83;78.63
77450;BME280;66536;53.150;18.172;2023-09-12T07:14:33;101055.91;;;19.95;78.31
77450;BME280;66536;53.150;18.172;2023-09-12T07:17:09;101053.27;;;20.07;78.04
77450;BME280;66536;53.150;18.172;2023-09-12T07:19:58;101052.21;;;20.21;77.75
77450;BME280;66536;53.150;18.172;2023-09-12T07:22:30;101052.56;;;20.35;77.36
77450;BME280;66536;53.150;18.172;2023-09-12T07:25:23;101049.05;;;20.47;76.88
77450;BME280;66536;53.150;18.172;2023-09-12T07:28:16;101048.44;;;20.60;76.46
77450;BME280;66536;53.150;18.172;2023-09-12T07:31:09;101052.69;;;20.72;75.98
77450;BME280;66536;53.150;18.172;2023-09-12T07:33:41;101050.89;;;20.85;75.61
77450;BME280;66536;53.150;18.172;2023-09-12T07:36:27;101050.95;;;21.01;75.26
77450;BME280;66536;53.150;18.172;2023-09-12T07:39:02;101052.04;;;21.16;74.87
77450;BME280;66536;53.150;18.172;2023-09-12T07:41:50;101052.33;;;21.31;74.52
77450;BME280;66536;53.150;18.172;2023-09-12T07:44:22;101052.08;;;21.46;74.12
77450;BME280;66536;53.150;18.172;2023-09-12T07:47:08;101054.48;;;21.60;73.74
77450;BME280;66536;53.150;18.172;2023-09-12T07:49:40;101055.85;;;21.74;73.26
77450;BME280;66536;53.150;18.172;2023-09-12T07:52:26;101056.85;;;21.90;73.02
77450;BME280;66536;53.150;18.172;2023-09-12T07:55:07;101053.23;;;22.08;72.49
77450;BME280;66536;53.150;18.172;2023-09-12T07:57:47;101058.35;;;22.24;71.91
77450;BME280;66536;53.150;18.172;2023-09-12T08:00:26;101054.80;;;22.42;71.54
77450;BME280;66536;53.150;18.172;2023-09-12T08:03:05;101051.70;;;22.58;71.09
77450;BME280;66536;53.150;18.172;2023-09-12T08:05:54;101051.02;;;22.76;70.53
77450;BME280;66536;53.150;18.172;2023-09-12T08:08:33;101052.13;;;22.94;70.03
77450;BME280;66536;53.150;18.172;2023-09-12T08:11:13;101050.78;;;23.13;69.51
77450;BME280;66536;53.150;18.172;2023-09-12T08:13:52;101048.61;;;23.29;69.22
77450;BME280;66536;53.150;18.172;2023-09-12T08:16:31;101048.41;;;23.48;68.61
77450;BME280;66536;53.150;18.172;2023-09-12T08:19:11;101050.64;;;23.65;68.11
77450;BME280;66536;53.150;18.172;2023-09-12T08:21:50;101048.23;;;23.83;67.63
77450;BME280;66536;53.150;18.172;2023-09-12T08:24:29;101049.30;;;24.00;67.13
77450;BME280;66536;53.150;18.172;2023-09-12T08:27:08;101053.27;;;24.14;66.47
77450;BME280;66536;53.150;18.172;2023-09-12T08:29:49;101053.23;;;24.28;65.98
77450;BME280;66536;53.150;18.172;2023-09-12T08:32:28;101055.08;;;24.45;65.66
77450;BME280;66536;53.150;18.172;2023-09-12T08:35:14;101051.73;;;24.62;64.63
77450;BME280;66536;53.150;18.172;2023-09-12T08:37:46;101051.27;;;24.78;64.02
77450;BME280;66536;53.150;18.172;2023-09-12T08:40:33;101049.92;;;24.95;63.70
77450;BME280;66536;53.150;18.172;2023-09-12T08:43:07;101053.34;;;25.12;63.24
77450;BME280;66536;53.150;18.172;2023-09-12T08:45:54;101052.66;;;25.28;62.44
77450;BME280;66536;53.150;18.172;2023-09-12T08:48:27;101048.46;;;25.43;61.84
77450;BME280;66536;53.150;18.172;2023-09-12T08:51:17;101046.02;;;25.59;61.33
77450;BME280;66536;53.150;18.172;2023-09-12T08:53:50;101046.16;;;25.73;60.55
77450;BME280;66536;53.150;18.172;2023-09-12T08:56:45;101050.23;;;25.90;59.76
77450;BME280;66536;53.150;18.172;2023-09-12T08:59:38;101046.63;;;26.05;58.85
77450;BME280;66536;53.150;18.172;2023-09-12T09:02:33;101046.15;;;26.19;58.01
77450;BME280;66536;53.150;18.172;2023-09-12T09:05:07;101048.72;;;26.32;57.19
77450;BME280;66536;53.150;18.172;2023-09-12T09:07:54;101048.41;;;26.42;56.52
77450;BME280;66536;53.150;18.172;2023-09-12T09:10:27;101044.85;;;26.53;55.77
77450;BME280;66536;53.150;18.172;2023-09-12T09:13:13;101045.36;;;26.63;55.25
77450;BME280;66536;53.150;18.172;2023-09-12T09:15:45;101044.62;;;26.76;54.75
77450;BME280;66536;53.150;18.172;2023-09-12T09:18:49;101043.73;;;26.91;53.85
77450;BME280;66536;53.150;18.172;2023-09-12T09:21:24;101041.64;;;27.05;53.54
77450;BME280;66536;53.150;18.172;2023-09-12T09:24:11;101039.66;;;27.19;53.55
77450;BME280;66536;53.150;18.172;2023-09-12T09:26:51;101035.50;;;27.34;52.84
77450;BME280;66536;53.150;18.172;2023-09-12T09:29:46;101031.63;;;27.48;52.53
77450;BME280;66536;53.150;18.172;2023-09-12T09:32:27;101031.41;;;27.61;51.77
77450;BME280;66536;53.150;18.172;2023-09-12T09:35:06;101026.36;;;27.75;51.18
77450;BME280;66536;53.150;18.172;2023-09-12T09:37:46;101025.30;;;27.89;50.85
77450;BME280;66536;53.150;18.172;2023-09-12T09:40:26;101021.73;;;28.01;49.87
77450;BME280;66536;53.150;18.172;2023-09-12T09:43:05;101017.02;;;28.15;49.22
77450;BME280;66536;53.150;18.172;2023-09-12T09:45:46;101011.73;;;28.24;48.75
77450;BME280;66536;53.150;18.172;2023-09-12T09:48:26;101016.13;;;28.37;48.27
77450;BME280;66536;53.150;18.172;2023-09-12T09:51:13;101008.64;;;28.51;48.06
77450;BME280;66536;53.150;18.172;2023-09-12T09:53:45;101011.88;;;28.64;47.53
77450;BME280;66536;53.150;18.172;2023-09-12T09:56:31;101006.49;;;28.79;47.21
77450;BME280;66536;53.150;18.172;2023-09-12T09:59:04;101005.96;;;28.92;46.32
77450;BME280;66536;53.150;18.172;2023-09-12T10:01:44;101006.36;;;29.03;45.31
77450;BME280;66536;53.150;18.172;2023-09-12T10:04:28;101005.34;;;29.12;44.88
77450;BME280;66536;53.150;18.172;2023-09-12T10:07:00;101002.79;;;29.20;44.29
77450;BME280;66536;53.150;18.172;2023-09-12T10:09:47;101001.27;;;29.31;44.41
77450;BME280;66536;53.150;18.172;2023-09-12T10:12:19;100996.77;;;29.44;43.92
77450;BME280;66536;53.150;18.172;2023-09-12T10:15:07;100998.74;;;29.58;43.59
77450;BME280;66536;53.150;18.172;2023-09-12T10:17:42;100997.45;;;29.68;42.79
77450;BME280;66536;53.150;18.172;2023-09-12T10:20:38;100997.16;;;29.76;42.28
77450;BME280;66536;53.150;18.172;2023-09-12T10:23:19;100996.92;;;29.87;42.55
77450;BME280;66536;53.150;18.172;2023-09-12T10:26:06;100994.23;;;29.96;41.92
77450;BME280;66536;53.150;18.172;2023-09-12T10:28:41;100994.11;;;30.06;41.93
77450;BME280;66536;53.150;18.172;2023-09-12T10:31:27;100991.46;;;30.13;41.62
77450;BME280;66536;53.150;18.172;2023-09-12T10:34:00;100990.38;;;30.21;41.01
77450;BME280;66536;53.150;18.172;2023-09-12T10:36:48;100988.48;;;30.28;40.68
77450;BME280;66536;53.150;18.172;2023-09-12T10:39:22;100989.27;;;30.34;39.93
77450;BME280;66536;53.150;18.172;2023-09-12T10:42:09;100988.46;;;30.42;39.87
77450;BME280;66536;53.150;18.172;2023-09-12T10:44:46;100990.59;;;30.51;39.62
77450;BME280;66536;53.150;18.172;2023-09-12T10:47:36;100989.27;;;30.58;39.39
77450;BME280;66536;53.150;18.172;2023-09-12T10:50:09;100981.94;;;30.67;39.13
77450;BME280;66536;53.150;18.172;2023-09-12T10:52:56;100980.77;;;30.76;38.86
77450;BME280;66536;53.150;18.172;2023-09-12T10:55:40;100975.48;;;30.82;38.63
77450;BME280;66536;53.150;18.172;2023-09-12T10:58:26;100977.75;;;30.88;38.30
77450;BME280;66536;53.150;18.172;2023-09-12T11:04:29;100965.20;;;30.97;37.72
77450;BME280;66536;53.150;18.172;2023-09-12T11:10:17;100956.02;;;31.09;37.44
77450;BME280;66536;53.150;18.172;2023-09-12T11:13:02;100957.81;;;31.13;37.27
77450;BME280;66536;53.150;18.172;2023-09-12T11:16:09;100958.09;;;31.15;37.49
77450;BME280;66536;53.150;18.172;2023-09-12T11:25:04;100963.58;;;31.14;36.38
77450;BME280;66536;53.150;18.172;2023-09-12T11:28:02;100962.59;;;31.19;36.61
77450;BME280;66536;53.150;18.172;2023-09-12T11:30:55;100962.04;;;31.29;36.51
77450;BME280;66536;53.150;18.172;2023-09-12T11:33:34;100956.13;;;31.35;36.43
77450;BME280;66536;53.150;18.172;2023-09-12T11:36:14;100957.27;;;31.41;35.87
77450;BME280;66536;53.150;18.172;2023-09-12T11:39:02;100959.30;;;31.41;35.62
77450;BME280;66536;53.150;18.172;2023-09-12T11:41:42;100957.73;;;31.43;35.45
77450;BME280;66536;53.150;18.172;2023-09-12T11:44:21;100955.58;;;31.40;35.25
77450;BME280;66536;53.150;18.172;2023-09-12T11:46:55;100955.77;;;31.38;35.01
77450;BME280;66536;53.150;18.172;2023-09-12T11:49:38;100957.84;;;31.38;35.03
77450;BME280;66536;53.150;18.172;2023-09-12T11:52:17;100952.79;;;31.38;34.74
77450;BME280;66536;53.150;18.172;2023-09-12T11:54:49;100953.60;;;31.43;34.81
77450;BME280;66536;53.150;18.172;2023-09-12T11:57:24;100952.66;;;31.44;34.10
77450;BME280;66536;53.150;18.172;2023-09-12T12:00:04;100948.73;;;31.46;34.46
77450;BME280;66536;53.150;18.172;2023-09-12T12:02:46;100948.20;;;31.49;33.85
77450;BME280;66536;53.150;18.172;2023-09-12T12:05:27;100947.95;;;31.51;33.75
77450;BME280;66536;53.150;18.172;2023-09-12T12:08:15;100952.35;;;31.57;33.41
77450;BME280;66536;53.150;18.172;2023-09-12T12:10:50;100949.89;;;31.57;33.05
77450;BME280;66536;53.150;18.172;2023-09-12T12:13:37;100947.40;;;31.56;32.72
77450;BME280;66536;53.150;18.172;2023-09-12T12:16:17;100948.30;;;31.60;33.32
77450;BME280;66536;53.150;18.172;2023-09-12T12:28:24;100941.32;;;31.98;32.54
77450;BME280;66536;53.150;18.172;2023-09-12T12:31:46;100941.42;;;32.05;32.64
77450;BME280;66536;53.150;18.172;2023-09-12T12:52:38;100934.71;;;32.24;32.05
77450;BME280;66536;53.150;18.172;2023-09-12T12:55:12;100934.27;;;32.25;31.81
77450;BME280;66536;53.150;18.172;2023-09-12T12:57:58;100931.50;;;32.24;31.34
77450;BME280;66536;53.150;18.172;2023-09-12T13:00:30;100928.20;;;32.29;31.68
77450;BME280;66536;53.150;18.172;2023-09-12T13:03:16;100925.33;;;32.34;31.53
77450;BME280;66536;53.150;18.172;2023-09-12T13:05:48;100918.06;;;32.37;31.29
77450;BME280;66536;53.150;18.172;2023-09-12T13:08:36;100920.70;;;32.36;31.01
77450;BME280;66536;53.150;18.172;2023-09-12T13:11:09;100914.80;;;32.33;30.78
77450;BME280;66536;53.150;18.172;2023-09-12T13:13:56;100914.27;;;32.24;30.44
77450;BME280;66536;53.150;18.172;2023-09-12T13:16:28;100912.19;;;32.23;30.77
77450;BME280;66536;53.150;18.172;2023-09-12T13:19:15;100913.29;;;32.21;30.57
77450;BME280;66536;53.150;18.172;2023-09-12T13:21:56;100911.86;;;32.19;30.33
77450;BME280;66536;53.150;18.172;2023-09-12T13:24:42;100912.74;;;32.12;29.97
77450;BME280;66536;53.150;18.172;2023-09-12T13:27:21;100907.25;;;32.03;30.37
77450;BME280;66536;53.150;18.172;2023-09-12T13:30:00;100904.00;;;32.05;30.38
77450;BME280;66536;53.150;18.172;2023-09-12T13:32:39;100897.34;;;32.02;30.41
77450;BME280;66536;53.150;18.172;2023-09-12T13:35:19;100891.91;;;31.96;30.35
77450;BME280;66536;53.150;18.172;2023-09-12T13:37:58;100889.35;;;31.92;30.46
77450;BME280;66536;53.150;18.172;2023-09-12T13:40:41;100888.66;;;31.92;30.63
77450;BME280;66536;53.150;18.172;2023-09-12T13:43:20;100884.99;;;31.92;30.35
77450;BME280;66536;53.150;18.172;2023-09-12T13:46:00;100882.23;;;31.95;30.69
77450;BME280;66536;53.150;18.172;2023-09-12T13:48:39;100885.52;;;31.91;30.89
77450;BME280;66536;53.150;18.172;2023-09-12T13:51:18;100877.56;;;31.92;30.90
77450;BME280;66536;53.150;18.172;2023-09-12T13:53:58;100879.55;;;31.92;30.87
77450;BME280;66536;53.150;18.172;2023-09-12T13:56:39;100876.25;;;31.95;30.98
77450;BME280;66536;53.150;18.172;2023-09-12T13:59:19;100875.58;;;31.97;30.85
77450;BME280;66536;53.150;18.172;2023-09-12T14:01:58;100872.73;;;31.97;30.64
77450;BME280;66536;53.150;18.172;2023-09-12T14:04:30;100873.50;;;31.97;30.43
77450;BME280;66536;53.150;18.172;2023-09-12T14:07:11;100873.18;;;31.94;30.53
77450;BME280;66536;53.150;18.172;2023-09-12T14:09:50;100878.24;;;31.89;30.52
77450;BME280;66536;53.150;18.172;2023-09-12T14:12:35;100874.67;;;31.82;30.55
77450;BME280;66536;53.150;18.172;2023-09-12T14:15:17;100871.90;;;31.78;30.63
77450;BME280;66536;53.150;18.172;2023-09-12T14:17:56;100876.50;;;31.76;30.54
77450;BME280;66536;53.150;18.172;2023-09-12T14:20:35;100875.23;;;31.71;30.52
77450;BME280;66536;53.150;18.172;2023-09-12T14:23:16;100874.48;;;31.68;30.51
77450;BME280;66536;53.150;18.172;2023-09-12T14:26:01;100877.61;;;31.69;30.57
77450;BME280;66536;53.150;18.172;2023-09-12T14:28:35;100875.22;;;31.71;30.46